createdAt,value
2024-01-31T00:00:54.581Z,8.87
2024-01-31T00:03:23.328Z,9.63
2024-01-31T00:05:53.222Z,9.33
2024-01-31T00:08:24.975Z,9.23
2024-01-31T00:11:04.467Z,9.77
2024-01-31T00:13:34.210Z,9.60
2024-01-31T00:16:23.991Z,9.87
2024-01-31T00:22:52.439Z,9.80
2024-01-31T00:25:23.072Z,9.47
2024-01-31T00:27:51.798Z,9.43
2024-01-31T00:30:20.849Z,10.07
2024-01-31T00:32:50.040Z,9.57
2024-01-31T00:35:19.857Z,10.43
2024-01-31T00:37:49.110Z,9.97
2024-01-31T00:40:20.974Z,9.87
2024-01-31T00:43:11.643Z,9.70
2024-01-31T00:45:41.284Z,9.90
2024-01-31T00:48:10.950Z,10.17
2024-01-31T00:50:39.982Z,10.53
2024-01-31T00:53:13.386Z,10.87
2024-01-31T00:55:42.523Z,10.57
2024-01-31T00:58:14.959Z,10.50
2024-01-31T01:00:56.114Z,10.60
2024-01-31T01:03:25.488Z,10.40
2024-01-31T01:06:12.535Z,10.53
2024-01-31T01:08:42.372Z,10.10
2024-01-31T01:11:13.206Z,10.83
2024-01-31T01:13:43.542Z,10.57
2024-01-31T01:16:13.785Z,11.03
2024-01-31T01:18:43.438Z,11.30
2024-01-31T01:21:15.492Z,11.33
2024-01-31T01:23:46.071Z,10.50
2024-01-31T01:26:28.695Z,9.97
2024-01-31T01:29:18.223Z,10.97
2024-01-31T01:31:47.050Z,11.23
2024-01-31T01:34:35.196Z,11.67
2024-01-31T01:37:03.976Z,11.30
2024-01-31T01:39:32.592Z,10.80
2024-01-31T01:42:02.282Z,10.17
2024-01-31T01:44:34.447Z,10.77
2024-01-31T01:47:20.748Z,11.17
2024-01-31T01:49:51.144Z,11.40
2024-01-31T01:52:20.872Z,10.63
2024-01-31T01:54:50.252Z,11.20
2024-01-31T01:57:19.957Z,11.40
2024-01-31T02:00:00.022Z,11.53
2024-01-31T02:02:30.582Z,11.00
2024-01-31T02:05:01.162Z,11.00
2024-01-31T02:07:32.188Z,11.37
2024-01-31T02:10:02.581Z,11.73
2024-01-31T02:12:33.020Z,11.57
2024-01-31T02:15:02.877Z,12.00
2024-01-31T02:17:34.907Z,11.97
2024-01-31T02:20:04.556Z,12.03
2024-01-31T02:22:56.588Z,10.87
2024-01-31T02:25:26.959Z,12.37
2024-01-31T02:27:58.556Z,11.53
2024-01-31T02:30:28.334Z,11.10
2024-01-31T02:32:58.060Z,11.83
2024-01-31T02:35:29.586Z,11.17
2024-01-31T02:38:00.946Z,11.67
2024-01-31T02:40:35.134Z,10.90
2024-01-31T02:43:04.252Z,12.70
2024-01-31T02:45:37.425Z,11.53
2024-01-31T02:48:24.125Z,11.87
2024-01-31T02:50:53.081Z,11.67
2024-01-31T02:53:27.470Z,11.53
2024-01-31T02:56:02.947Z,12.43
2024-01-31T02:58:33.185Z,11.87
2024-01-31T03:01:02.246Z,12.27
2024-01-31T03:03:31.380Z,11.90
2024-01-31T03:06:00.365Z,11.53
2024-01-31T03:08:49.731Z,11.87
2024-01-31T03:11:22.733Z,11.77
2024-01-31T03:13:55.184Z,11.90
2024-01-31T03:16:33.592Z,11.70
2024-01-31T03:19:02.362Z,11.60
2024-01-31T03:21:31.444Z,12.27
2024-01-31T03:24:13.577Z,11.80
2024-01-31T03:26:44.085Z,11.80
2024-01-31T03:29:12.932Z,11.90
2024-01-31T03:31:42.756Z,11.97
2024-01-31T03:34:18.695Z,11.63
2024-01-31T03:36:47.671Z,12.27
2024-01-31T03:39:20.294Z,11.10
2024-01-31T03:41:51.271Z,10.83
2024-01-31T03:44:20.171Z,11.73
2024-01-31T03:46:51.312Z,11.23
2024-01-31T03:49:20.179Z,12.13
2024-01-31T03:51:49.300Z,12.70
2024-01-31T03:54:23.483Z,11.67
2024-01-31T03:56:52.484Z,11.83
2024-01-31T03:59:21.521Z,12.20
2024-01-31T04:01:52.858Z,12.70
2024-01-31T04:04:21.841Z,11.80
2024-01-31T04:06:50.862Z,11.73
2024-01-31T04:09:23.059Z,11.30
2024-01-31T04:11:52.146Z,11.40
2024-01-31T04:14:36.703Z,12.53
2024-01-31T04:17:06.100Z,12.10
2024-01-31T04:19:37.169Z,13.27
2024-01-31T04:22:19.159Z,11.03
2024-01-31T04:24:49.850Z,12.50
2024-01-31T04:27:19.227Z,11.93
2024-01-31T04:29:49.584Z,12.73
2024-01-31T04:32:37.780Z,13.57
2024-01-31T04:35:18.514Z,12.97
2024-01-31T04:37:47.332Z,12.23
2024-01-31T04:40:17.836Z,12.53
2024-01-31T04:42:50.462Z,12.20
2024-01-31T04:45:26.599Z,10.97
2024-01-31T04:47:58.424Z,11.33
2024-01-31T04:50:27.074Z,11.13
2024-01-31T04:52:58.470Z,12.30
2024-01-31T04:55:30.503Z,11.90
2024-01-31T04:58:01.493Z,11.17
2024-01-31T05:00:32.884Z,11.90
2024-01-31T05:03:04.259Z,11.33
2024-01-31T05:05:36.035Z,10.90
2024-01-31T05:08:08.470Z,10.87
2024-01-31T05:10:39.584Z,10.40
2024-01-31T05:13:13.035Z,9.43
2024-01-31T05:15:43.637Z,9.73
2024-01-31T05:18:15.989Z,10.10
2024-01-31T05:20:45.459Z,11.03
2024-01-31T05:23:16.839Z,11.40
2024-01-31T05:25:48.454Z,10.60
2024-01-31T05:28:18.451Z,10.10
2024-01-31T05:30:47.525Z,10.50
2024-01-31T05:33:18.987Z,10.03
2024-01-31T05:35:49.143Z,9.10
2024-01-31T05:38:20.529Z,8.13
2024-01-31T05:40:52.098Z,8.67
2024-01-31T05:43:22.330Z,8.17
2024-01-31T05:45:51.635Z,8.60
2024-01-31T05:48:23.028Z,8.40
2024-01-31T05:50:53.197Z,8.00
2024-01-31T05:53:24.407Z,7.07
2024-01-31T05:55:56.928Z,7.40
2024-01-31T05:58:28.723Z,8.30
2024-01-31T06:00:59.018Z,8.60
2024-01-31T06:03:29.662Z,7.60
2024-01-31T06:05:59.816Z,7.67
2024-01-31T06:08:29.432Z,7.60
2024-01-31T06:11:04.694Z,7.83
2024-01-31T06:13:41.214Z,8.17
2024-01-31T06:16:11.867Z,7.97
2024-01-31T06:18:40.815Z,7.80
2024-01-31T06:21:12.244Z,9.67
2024-01-31T06:23:47.818Z,10.90
2024-01-31T06:26:19.133Z,10.27
2024-01-31T06:28:50.846Z,11.27
2024-01-31T06:31:28.812Z,10.83
2024-01-31T06:34:00.466Z,11.27
2024-01-31T06:36:40.969Z,11.37
2024-01-31T06:39:10.550Z,10.53
2024-01-31T06:41:41.963Z,11.03
2024-01-31T06:44:10.538Z,11.13
2024-01-31T06:46:39.792Z,10.60
2024-01-31T06:49:08.856Z,10.67
2024-01-31T06:51:53.547Z,11.40
2024-01-31T06:54:23.098Z,11.33
2024-01-31T06:56:53.197Z,10.47
2024-01-31T06:59:21.804Z,10.70
2024-01-31T07:01:54.033Z,10.47
2024-01-31T07:04:22.793Z,11.03
2024-01-31T07:06:53.373Z,11.00
2024-01-31T07:09:21.990Z,10.10
2024-01-31T07:11:52.816Z,11.17
2024-01-31T07:14:27.827Z,11.00
2024-01-31T07:16:59.590Z,11.27
2024-01-31T07:19:29.008Z,10.80
2024-01-31T07:21:58.034Z,10.20
2024-01-31T07:24:30.174Z,11.13
2024-01-31T07:27:04.214Z,10.47
2024-01-31T07:29:33.067Z,11.10
2024-01-31T07:32:02.559Z,12.17
2024-01-31T07:34:51.434Z,11.07
2024-01-31T07:37:20.102Z,12.30
2024-01-31T07:39:49.864Z,12.60
2024-01-31T07:42:19.940Z,11.60
2024-01-31T07:44:48.327Z,11.37
2024-01-31T07:47:23.487Z,11.63
2024-01-31T07:49:52.417Z,11.60
2024-01-31T07:52:21.023Z,12.27
2024-01-31T07:54:49.866Z,12.30
2024-01-31T07:57:19.834Z,13.00
2024-01-31T07:59:52.514Z,12.37
2024-01-31T08:02:22.502Z,12.30
2024-01-31T08:04:52.704Z,13.10
2024-01-31T08:07:21.169Z,13.20
2024-01-31T08:09:51.220Z,12.83
2024-01-31T08:12:24.780Z,12.47
2024-01-31T08:14:55.019Z,12.87
2024-01-31T08:17:23.971Z,12.50
2024-01-31T08:20:00.991Z,13.27
2024-01-31T08:22:29.800Z,12.90
2024-01-31T08:24:58.751Z,12.50
2024-01-31T08:27:29.697Z,13.20
2024-01-31T08:29:58.709Z,12.73
2024-01-31T08:32:37.012Z,12.20
2024-01-31T08:35:08.053Z,13.27
2024-01-31T08:37:36.918Z,13.90
2024-01-31T08:40:08.788Z,13.07
2024-01-31T08:42:41.399Z,13.00
2024-01-31T08:45:11.949Z,13.17
2024-01-31T08:47:40.771Z,13.80
2024-01-31T08:50:12.450Z,12.77
2024-01-31T08:52:41.663Z,13.30
2024-01-31T08:55:13.698Z,11.80
2024-01-31T08:57:43.993Z,12.40
2024-01-31T09:00:14.262Z,12.30
2024-01-31T09:02:46.441Z,12.83
2024-01-31T09:05:15.149Z,12.60
2024-01-31T09:07:44.339Z,12.33
2024-01-31T09:10:13.134Z,12.87
2024-01-31T09:13:02.662Z,12.53
2024-01-31T09:15:36.852Z,12.33
2024-01-31T09:18:14.244Z,12.47
2024-01-31T09:20:43.242Z,12.67
2024-01-31T09:23:13.652Z,12.10
2024-01-31T09:25:43.804Z,12.50
2024-01-31T09:28:13.931Z,12.20
2024-01-31T09:30:45.631Z,12.20
2024-01-31T09:33:14.479Z,11.97
2024-01-31T09:35:43.258Z,11.87
2024-01-31T09:38:13.023Z,11.80
2024-01-31T09:40:45.432Z,11.47
2024-01-31T09:43:15.566Z,10.53
2024-01-31T09:45:45.668Z,12.17
2024-01-31T09:48:16.366Z,12.63
2024-01-31T09:50:48.967Z,11.03
2024-01-31T09:53:17.584Z,11.87
2024-01-31T09:55:48.971Z,11.10
2024-01-31T09:58:20.874Z,10.77
2024-01-31T10:00:55.908Z,11.07
2024-01-31T10:03:26.678Z,11.03
2024-01-31T10:05:56.962Z,10.30
2024-01-31T10:08:30.303Z,11.07
2024-01-31T10:10:59.342Z,9.70
2024-01-31T10:13:32.114Z,8.43
2024-01-31T10:16:03.901Z,8.37
2024-01-31T10:18:32.993Z,7.33
2024-01-31T10:21:03.084Z,8.60
2024-01-31T10:23:33.801Z,10.30
2024-01-31T10:26:03.727Z,7.20
2024-01-31T10:29:03.587Z,7.23
2024-01-31T10:31:38.092Z,7.53
2024-01-31T10:34:09.786Z,6.70
2024-01-31T10:37:26.934Z,6.07
2024-01-31T10:39:34.796Z,7.30
2024-01-31T10:42:03.824Z,7.37
2024-01-31T10:44:49.051Z,6.20
2024-01-31T10:47:17.871Z,5.67
2024-01-31T10:49:47.512Z,6.27
2024-01-31T10:52:25.547Z,6.40
2024-01-31T10:55:00.633Z,5.93
2024-01-31T10:57:43.866Z,5.90
2024-01-31T11:00:26.529Z,5.60
2024-01-31T11:02:58.166Z,5.47
2024-01-31T11:05:28.348Z,5.10
2024-01-31T11:07:58.484Z,4.80
2024-01-31T11:10:29.021Z,5.67
2024-01-31T11:13:03.289Z,5.23
2024-01-31T11:15:35.544Z,5.20
2024-01-31T11:18:08.396Z,4.93
2024-01-31T11:20:38.295Z,4.67
2024-01-31T11:23:09.494Z,4.77
2024-01-31T11:25:39.136Z,4.73
2024-01-31T11:28:08.557Z,4.73
2024-01-31T11:30:41.660Z,6.20
2024-01-31T11:33:12.287Z,5.40
2024-01-31T11:35:42.741Z,7.17
2024-01-31T11:38:11.436Z,6.13
2024-01-31T11:40:43.487Z,4.00
2024-01-31T11:43:13.153Z,4.53
2024-01-31T11:45:42.850Z,4.27
2024-01-31T11:48:16.448Z,4.60
2024-01-31T11:51:05.976Z,4.27
2024-01-31T11:53:35.030Z,4.10
2024-01-31T11:56:04.738Z,3.90
2024-01-31T11:58:36.690Z,4.23
2024-01-31T12:01:08.273Z,3.93
2024-01-31T12:03:38.681Z,3.80
2024-01-31T12:06:10.101Z,5.03
2024-01-31T12:08:43.361Z,4.77
2024-01-31T12:11:12.676Z,4.23
2024-01-31T12:13:49.199Z,4.30
2024-01-31T12:16:21.536Z,4.37
2024-01-31T12:19:01.519Z,3.33
2024-01-31T12:21:30.248Z,3.50
2024-01-31T12:23:59.611Z,3.50
2024-01-31T12:26:28.339Z,3.90
2024-01-31T12:28:58.047Z,3.87
2024-01-31T12:31:31.763Z,3.60
2024-01-31T12:34:04.306Z,3.60
2024-01-31T12:36:33.380Z,3.83
2024-01-31T12:39:01.910Z,3.10
2024-01-31T12:41:50.107Z,3.17
2024-01-31T12:44:20.210Z,3.50
2024-01-31T12:47:07.004Z,3.03
2024-01-31T12:49:39.926Z,2.60
2024-01-31T12:52:08.645Z,3.13
2024-01-31T12:54:37.551Z,3.43
2024-01-31T12:57:08.273Z,3.03
2024-01-31T12:59:40.107Z,3.20
2024-01-31T13:02:10.411Z,2.87
2024-01-31T13:04:39.187Z,3.20
2024-01-31T13:07:09.670Z,3.00
2024-01-31T13:09:39.842Z,3.20
2024-01-31T13:12:13.025Z,2.97
2024-01-31T13:14:46.082Z,2.73
2024-01-31T13:17:15.756Z,2.93
2024-01-31T13:19:44.954Z,2.90
2024-01-31T13:22:15.282Z,3.00
2024-01-31T13:24:43.892Z,2.77
2024-01-31T13:27:15.142Z,3.23
2024-01-31T13:29:47.271Z,3.17
2024-01-31T13:32:36.518Z,4.87
2024-01-31T13:35:05.308Z,3.30
2024-01-31T13:37:33.974Z,3.70
2024-01-31T13:40:03.384Z,3.10
2024-01-31T13:42:36.681Z,3.37
2024-01-31T13:45:08.097Z,3.13
2024-01-31T13:47:39.324Z,3.70
2024-01-31T13:50:09.202Z,3.60
2024-01-31T13:52:48.905Z,3.93
2024-01-31T13:55:17.523Z,3.60
2024-01-31T13:57:46.634Z,2.93
2024-01-31T14:00:15.849Z,3.40
2024-01-31T14:02:45.954Z,3.60
2024-01-31T14:05:21.283Z,3.27
2024-01-31T14:07:49.910Z,3.30
2024-01-31T14:10:18.982Z,3.10
2024-01-31T14:12:48.362Z,3.20
2024-01-31T14:15:17.446Z,2.87
2024-01-31T14:17:47.631Z,3.27
2024-01-31T14:20:17.274Z,3.97
2024-01-31T14:23:04.377Z,4.70
2024-01-31T14:25:44.482Z,4.30
2024-01-31T14:28:15.299Z,4.10
2024-01-31T14:30:43.651Z,4.57
2024-01-31T14:33:14.414Z,3.47
2024-01-31T14:35:45.872Z,3.60
2024-01-31T14:38:14.082Z,3.97
2024-01-31T14:40:42.380Z,3.53
2024-01-31T14:43:10.912Z,3.30
2024-01-31T14:45:39.115Z,3.40
2024-01-31T14:48:09.040Z,3.40
2024-01-31T14:50:38.944Z,3.63
2024-01-31T14:53:24.994Z,3.37
2024-01-31T14:55:53.337Z,3.10
2024-01-31T14:58:31.087Z,3.57
2024-01-31T15:01:03.039Z,3.10
2024-01-31T15:03:32.701Z,3.30
2024-01-31T15:06:17.876Z,4.00
2024-01-31T15:08:46.622Z,3.87
2024-01-31T15:11:14.922Z,3.40
2024-01-31T15:13:43.206Z,3.97
2024-01-31T15:16:27.793Z,3.30
2024-01-31T15:18:56.537Z,3.00
2024-01-31T15:21:26.552Z,3.70
2024-01-31T15:24:00.822Z,4.43
2024-01-31T15:26:29.824Z,4.23
2024-01-31T15:28:59.218Z,3.67
2024-01-31T15:31:29.154Z,13.07
2024-01-31T15:33:57.590Z,6.13
2024-01-31T15:36:28.589Z,13.87
2024-01-31T15:38:59.651Z,17.00
2024-01-31T15:41:28.774Z,15.20
2024-01-31T15:43:57.106Z,10.40
2024-01-31T15:46:28.344Z,8.83
2024-01-31T15:48:59.531Z,11.07
2024-01-31T15:51:30.695Z,11.67
2024-01-31T15:53:59.578Z,6.03
2024-01-31T15:56:28.544Z,7.17
2024-01-31T15:58:58.787Z,8.70
2024-01-31T16:01:28.257Z,9.30
2024-01-31T16:04:16.398Z,10.93
2024-01-31T16:06:52.645Z,7.80
2024-01-31T16:09:21.928Z,7.47
2024-01-31T16:11:51.558Z,6.37
2024-01-31T16:14:19.975Z,7.13
2024-01-31T16:16:49.158Z,9.43
2024-01-31T16:19:18.880Z,7.47
2024-01-31T16:22:08.155Z,9.17
2024-01-31T16:24:47.853Z,7.53
2024-01-31T16:27:16.104Z,6.27
2024-01-31T16:29:45.251Z,6.57
2024-01-31T16:32:13.798Z,6.53
2024-01-31T16:34:46.337Z,6.20
2024-01-31T16:37:22.376Z,5.83
2024-01-31T16:39:50.680Z,5.70
2024-01-31T16:42:19.726Z,7.93
2024-01-31T16:44:48.689Z,7.83
2024-01-31T16:47:17.154Z,6.30
2024-01-31T16:50:05.766Z,4.67
2024-01-31T16:52:47.701Z,5.47
2024-01-31T16:55:17.002Z,5.43
2024-01-31T16:58:05.817Z,5.60
2024-01-31T17:00:34.935Z,4.90
2024-01-31T17:03:08.844Z,4.50
2024-01-31T17:05:38.175Z,4.57
2024-01-31T17:08:09.737Z,5.23
2024-01-31T17:10:38.954Z,4.90
2024-01-31T17:13:07.688Z,4.80
2024-01-31T17:15:35.976Z,5.40
2024-01-31T17:18:05.218Z,5.57
2024-01-31T17:20:43.482Z,5.40
2024-01-31T17:23:14.330Z,5.70
2024-01-31T17:25:43.909Z,5.20
2024-01-31T17:28:15.290Z,6.13
2024-01-31T17:30:43.588Z,6.13
2024-01-31T17:33:15.917Z,6.03
2024-01-31T17:35:44.865Z,5.77
2024-01-31T17:38:15.206Z,5.93
2024-01-31T17:40:49.269Z,6.40
2024-01-31T17:43:18.021Z,5.40
2024-01-31T17:45:47.148Z,4.80
2024-01-31T17:48:16.597Z,5.10
2024-01-31T17:50:47.837Z,5.13
2024-01-31T17:53:17.906Z,4.97
2024-01-31T17:55:47.433Z,4.70
2024-01-31T17:58:16.413Z,4.47
2024-01-31T18:00:44.618Z,4.50
2024-01-31T18:03:13.654Z,4.03
2024-01-31T18:05:54.227Z,4.00
2024-01-31T18:08:26.557Z,3.70
2024-01-31T18:11:15.004Z,3.27
2024-01-31T18:13:49.529Z,3.73
2024-01-31T18:16:19.209Z,3.43
2024-01-31T18:18:47.516Z,3.47
2024-01-31T18:21:19.172Z,3.73
2024-01-31T18:24:02.834Z,4.33
2024-01-31T18:26:31.986Z,4.10
2024-01-31T18:29:06.527Z,4.00
2024-01-31T18:31:41.808Z,5.60
2024-01-31T18:34:29.770Z,5.70
2024-01-31T18:36:58.247Z,5.93
2024-01-31T18:39:39.279Z,4.17
2024-01-31T18:42:15.046Z,5.43
2024-01-31T18:44:44.680Z,5.43
2024-01-31T18:47:14.706Z,4.77
2024-01-31T18:49:43.196Z,4.43
2024-01-31T18:52:11.781Z,4.40
2024-01-31T18:54:44.407Z,4.73
2024-01-31T18:57:27.077Z,4.93
2024-01-31T18:59:55.558Z,5.33
2024-01-31T19:02:24.512Z,5.50
2024-01-31T19:05:12.510Z,3.97
2024-01-31T19:07:41.234Z,4.90
2024-01-31T19:10:15.693Z,5.60
2024-01-31T19:12:45.828Z,4.80
2024-01-31T19:15:35.349Z,4.70
2024-01-31T19:18:08.057Z,4.87
2024-01-31T19:20:50.219Z,5.67
2024-01-31T19:23:20.171Z,4.90
2024-01-31T19:25:50.202Z,4.83
2024-01-31T19:28:32.615Z,4.80
2024-01-31T19:31:01.316Z,4.77
2024-01-31T19:33:38.654Z,5.27
2024-01-31T19:36:08.420Z,5.47
2024-01-31T19:38:38.128Z,5.40
2024-01-31T19:41:08.271Z,5.10
2024-01-31T19:43:37.325Z,5.37
2024-01-31T19:46:06.435Z,4.80
2024-01-31T19:48:50.268Z,5.20
2024-01-31T19:51:19.858Z,5.53
2024-01-31T19:53:50.976Z,5.63
2024-01-31T19:56:22.046Z,5.57
2024-01-31T19:58:52.496Z,6.10
2024-01-31T20:01:21.564Z,5.63
2024-01-31T20:03:50.677Z,5.67
2024-01-31T20:06:19.528Z,5.73
2024-01-31T20:08:48.553Z,5.00
2024-01-31T20:11:17.572Z,5.17
2024-01-31T20:14:08.719Z,5.40
2024-01-31T20:16:49.419Z,4.93
2024-01-31T20:19:18.186Z,4.77
2024-01-31T20:21:46.901Z,5.20
2024-01-31T20:24:35.284Z,5.00
2024-01-31T20:27:03.712Z,4.50
2024-01-31T20:29:43.982Z,5.00
2024-01-31T20:32:17.090Z,5.13
2024-01-31T20:35:05.677Z,5.03
2024-01-31T20:37:34.189Z,4.53
2024-01-31T20:40:03.639Z,5.00
2024-01-31T20:42:46.004Z,4.87
2024-01-31T20:45:18.496Z,4.47
2024-01-31T20:47:49.045Z,4.60
2024-01-31T20:50:19.608Z,4.93
2024-01-31T20:53:09.857Z,4.70
2024-01-31T20:55:39.163Z,4.40
2024-01-31T20:58:07.566Z,4.60
2024-01-31T21:00:49.384Z,4.90
2024-01-31T21:03:26.456Z,5.20
2024-01-31T21:05:56.608Z,6.00
2024-01-31T21:08:28.397Z,6.03
2024-01-31T21:11:16.549Z,5.73
2024-01-31T21:13:49.219Z,5.93
2024-01-31T21:16:20.032Z,5.73
2024-01-31T21:18:48.289Z,5.47
2024-01-31T21:21:20.044Z,6.57
2024-01-31T21:23:48.352Z,6.40
2024-01-31T21:26:22.816Z,6.87
2024-01-31T21:28:51.112Z,6.70
2024-01-31T21:31:20.726Z,5.80
2024-01-31T21:34:08.881Z,5.40
2024-01-31T21:36:37.474Z,6.60
2024-01-31T21:39:07.535Z,6.60
2024-01-31T21:41:55.521Z,6.70
2024-01-31T21:44:24.861Z,5.83
2024-01-31T21:46:56.773Z,5.17
2024-01-31T21:49:25.568Z,5.13
2024-01-31T21:51:53.918Z,5.30
2024-01-31T21:54:22.412Z,6.10
2024-01-31T21:56:52.757Z,5.77
2024-01-31T21:59:40.565Z,5.37
2024-01-31T22:02:27.816Z,5.03
2024-01-31T22:04:58.295Z,5.93
2024-01-31T22:07:26.636Z,6.17
2024-01-31T22:09:54.896Z,5.30
2024-01-31T22:12:24.018Z,6.00
2024-01-31T22:14:52.798Z,5.30
2024-01-31T22:17:24.018Z,5.37
2024-01-31T22:19:54.627Z,4.90
2024-01-31T22:22:23.752Z,4.50
2024-01-31T22:24:55.869Z,4.20
2024-01-31T22:27:24.142Z,4.60
2024-01-31T22:29:53.471Z,4.37
2024-01-31T22:32:41.144Z,4.23
2024-01-31T22:35:11.542Z,3.93
2024-01-31T22:37:40.129Z,4.13
2024-01-31T22:40:09.522Z,4.63
2024-01-31T22:42:51.784Z,3.77
2024-01-31T22:45:26.474Z,3.53
2024-01-31T22:47:57.338Z,4.07
2024-01-31T22:50:27.086Z,3.47
2024-01-31T22:52:56.530Z,3.67
2024-01-31T22:55:44.730Z,3.80
2024-01-31T22:58:32.695Z,3.90
2024-01-31T23:01:02.503Z,4.00
2024-01-31T23:03:31.586Z,4.00
2024-01-31T23:06:03.805Z,3.80
2024-01-31T23:08:33.979Z,4.27
2024-01-31T23:11:20.265Z,3.53
2024-01-31T23:13:59.392Z,3.97
2024-01-31T23:16:28.710Z,3.97
2024-01-31T23:18:57.683Z,4.17
2024-01-31T23:21:27.555Z,4.37
2024-01-31T23:23:56.194Z,3.80
2024-01-31T23:26:24.818Z,3.77
2024-01-31T23:29:12.484Z,4.13
2024-01-31T23:31:42.328Z,4.07
2024-01-31T23:34:11.710Z,3.70
2024-01-31T23:36:41.578Z,3.70
2024-01-31T23:39:10.009Z,3.73
2024-01-31T23:41:38.603Z,4.17
2024-01-31T23:44:07.526Z,3.80
2024-01-31T23:46:36.109Z,3.63
2024-01-31T23:49:15.850Z,3.60
2024-01-31T23:51:47.951Z,3.97
2024-01-31T23:54:16.751Z,3.97
2024-01-31T23:56:45.037Z,4.17
2024-01-31T23:59:13.324Z,4.87
